sensor_id;sensor_type;location;lat;lon;timestamp;P1;durP1;ratioP1;P2;durP2;ratioP2
15451;SDS011;7827;53.594;9.938;2023-04-06T00:00:08;10.57;;;6.87;;
15451;SDS011;7827;53.594;9.938;2023-04-06T00:02:38;14.10;;;7.70;;
15451;SDS011;7827;53.594;9.938;2023-04-06T00:05:07;10.47;;;7.30;;
15451;SDS011;7827;53.594;9.938;2023-04-06T00:07:37;9.17;;;7.13;;
15451;SDS011;7827;53.594;9.938;2023-04-06T00:10:08;11.40;;;7.40;;
15451;SDS011;7827;53.594;9.938;2023-04-06T00:12:37;11.27;;;7.50;;
15451;SDS011;7827;53.594;9.938;2023-04-06T00:15:06;11.87;;;7.80;;
15451;SDS011;7827;53.594;9.938;2023-04-06T00:17:36;11.30;;;7.87;;
15451;SDS011;7827;53.594;9.938;2023-04-06T00:20:05;11.53;;;7.77;;
15451;SDS011;7827;53.594;9.938;2023-04-06T00:22:34;12.43;;;7.63;;
15451;SDS011;7827;53.594;9.938;2023-04-06T00:25:05;9.40;;;7.37;;
15451;SDS011;7827;53.594;9.938;2023-04-06T00:27:34;11.03;;;7.43;;
15451;SDS011;7827;53.594;9.938;2023-04-06T00:30:03;10.13;;;6.97;;
15451;SDS011;7827;53.594;9.938;2023-04-06T00:32:33;10.47;;;6.93;;
15451;SDS011;7827;53.594;9.938;2023-04-06T00:35:03;9.73;;;7.37;;
15451;SDS011;7827;53.594;9.938;2023-04-06T00:37:32;9.90;;;7.00;;
15451;SDS011;7827;53.594;9.938;2023-04-06T00:40:01;10.23;;;7.57;;
15451;SDS011;7827;53.594;9.938;2023-04-06T00:42:31;11.00;;;7.60;;
15451;SDS011;7827;53.594;9.938;2023-04-06T00:45:00;11.43;;;7.00;;
15451;SDS011;7827;53.594;9.938;2023-04-06T00:47:30;12.33;;;7.60;;
15451;SDS011;7827;53.594;9.938;2023-04-06T00:49:59;11.63;;;7.70;;
15451;SDS011;7827;53.594;9.938;2023-04-06T00:52:27;11.97;;;7.73;;
15451;SDS011;7827;53.594;9.938;2023-04-06T00:54:56;11.63;;;7.77;;
15451;SDS011;7827;53.594;9.938;2023-04-06T00:57:24;12.00;;;7.73;;
15451;SDS011;7827;53.594;9.938;2023-04-06T00:59:56;11.57;;;7.83;;
15451;SDS011;7827;53.594;9.938;2023-04-06T01:02:25;11.70;;;7.70;;
15451;SDS011;7827;53.594;9.938;2023-04-06T01:04:54;13.53;;;7.80;;
15451;SDS011;7827;53.594;9.938;2023-04-06T01:07:28;17.97;;;7.20;;
15451;SDS011;7827;53.594;9.938;2023-04-06T01:10:08;13.63;;;7.57;;
15451;SDS011;7827;53.594;9.938;2023-04-06T01:12:37;11.63;;;8.10;;
15451;SDS011;7827;53.594;9.938;2023-04-06T01:15:17;10.33;;;7.60;;
15451;SDS011;7827;53.594;9.938;2023-04-06T01:17:49;10.97;;;7.47;;
15451;SDS011;7827;53.594;9.938;2023-04-06T01:20:18;10.80;;;7.03;;
15451;SDS011;7827;53.594;9.938;2023-04-06T01:22:49;10.60;;;7.27;;
15451;SDS011;7827;53.594;9.938;2023-04-06T01:25:18;10.83;;;7.47;;
15451;SDS011;7827;53.594;9.938;2023-04-06T01:28:00;11.37;;;7.53;;
15451;SDS011;7827;53.594;9.938;2023-04-06T01:31:01;13.93;;;8.07;;
15451;SDS011;7827;53.594;9.938;2023-04-06T01:33:49;9.87;;;7.57;;
15451;SDS011;7827;53.594;9.938;2023-04-06T01:36:20;9.80;;;7.27;;
15451;SDS011;7827;53.594;9.938;2023-04-06T01:38:59;13.30;;;7.80;;
15451;SDS011;7827;53.594;9.938;2023-04-06T01:41:33;15.83;;;7.90;;
15451;SDS011;7827;53.594;9.938;2023-04-06T01:44:02;12.57;;;7.13;;
15451;SDS011;7827;53.594;9.938;2023-04-06T01:46:31;12.30;;;7.20;;
15451;SDS011;7827;53.594;9.938;2023-04-06T01:49:03;12.63;;;7.70;;
15451;SDS011;7827;53.594;9.938;2023-04-06T01:51:34;9.30;;;7.37;;
15451;SDS011;7827;53.594;9.938;2023-04-06T01:54:07;15.43;;;8.23;;
15451;SDS011;7827;53.594;9.938;2023-04-06T01:56:51;11.73;;;7.70;;
15451;SDS011;7827;53.594;9.938;2023-04-06T01:59:27;13.77;;;7.73;;
15451;SDS011;7827;53.594;9.938;2023-04-06T02:01:57;11.73;;;8.37;;
15451;SDS011;7827;53.594;9.938;2023-04-06T02:04:27;20.27;;;11.83;;
15451;SDS011;7827;53.594;9.938;2023-04-06T02:07:06;22.87;;;15.13;;
15451;SDS011;7827;53.594;9.938;2023-04-06T02:09:36;13.03;;;7.67;;
15451;SDS011;7827;53.594;9.938;2023-04-06T02:12:09;12.93;;;8.13;;
15451;SDS011;7827;53.594;9.938;2023-04-06T02:14:37;11.97;;;8.37;;
15451;SDS011;7827;53.594;9.938;2023-04-06T02:17:06;13.10;;;9.13;;
15451;SDS011;7827;53.594;9.938;2023-04-06T02:19:35;14.03;;;8.80;;
15451;SDS011;7827;53.594;9.938;2023-04-06T02:22:04;13.53;;;7.47;;
15451;SDS011;7827;53.594;9.938;2023-04-06T02:24:33;9.50;;;7.03;;
15451;SDS011;7827;53.594;9.938;2023-04-06T02:27:03;12.33;;;8.40;;
15451;SDS011;7827;53.594;9.938;2023-04-06T02:29:32;11.93;;;7.83;;
15451;SDS011;7827;53.594;9.938;2023-04-06T02:32:01;11.53;;;8.57;;
15451;SDS011;7827;53.594;9.938;2023-04-06T02:34:31;13.63;;;8.13;;
15451;SDS011;7827;53.594;9.938;2023-04-06T02:37:00;12.50;;;8.07;;
15451;SDS011;7827;53.594;9.938;2023-04-06T02:39:29;13.80;;;8.33;;
15451;SDS011;7827;53.594;9.938;2023-04-06T02:41:58;11.67;;;8.60;;
15451;SDS011;7827;53.594;9.938;2023-04-06T02:44:29;14.67;;;9.93;;
15451;SDS011;7827;53.594;9.938;2023-04-06T02:46:58;13.40;;;8.63;;
15451;SDS011;7827;53.594;9.938;2023-04-06T02:49:27;13.10;;;8.47;;
15451;SDS011;7827;53.594;9.938;2023-04-06T02:51:58;12.43;;;8.53;;
15451;SDS011;7827;53.594;9.938;2023-04-06T02:54:31;13.10;;;8.57;;
15451;SDS011;7827;53.594;9.938;2023-04-06T02:57:01;14.93;;;8.67;;
15451;SDS011;7827;53.594;9.938;2023-04-06T02:59:41;12.83;;;8.30;;
15451;SDS011;7827;53.594;9.938;2023-04-06T03:02:24;12.93;;;7.80;;
15451;SDS011;7827;53.594;9.938;2023-04-06T03:05:01;11.77;;;8.40;;
15451;SDS011;7827;53.594;9.938;2023-04-06T03:07:35;14.13;;;8.97;;
15451;SDS011;7827;53.594;9.938;2023-04-06T03:10:06;11.13;;;8.20;;
15451;SDS011;7827;53.594;9.938;2023-04-06T03:12:37;13.00;;;8.47;;
15451;SDS011;7827;53.594;9.938;2023-04-06T03:15:19;13.40;;;8.57;;
15451;SDS011;7827;53.594;9.938;2023-04-06T03:17:53;13.63;;;8.87;;
15451;SDS011;7827;53.594;9.938;2023-04-06T03:20:32;14.50;;;8.10;;
15451;SDS011;7827;53.594;9.938;2023-04-06T03:23:00;16.03;;;9.10;;
15451;SDS011;7827;53.594;9.938;2023-04-06T03:25:33;15.20;;;8.43;;
15451;SDS011;7827;53.594;9.938;2023-04-06T03:28:05;12.80;;;9.00;;
15451;SDS011;7827;53.594;9.938;2023-04-06T03:30:41;13.17;;;9.10;;
15451;SDS011;7827;53.594;9.938;2023-04-06T03:33:10;22.07;;;8.87;;
15451;SDS011;7827;53.594;9.938;2023-04-06T03:35:48;13.60;;;9.30;;
15451;SDS011;7827;53.594;9.938;2023-04-06T03:38:17;12.50;;;8.10;;
15451;SDS011;7827;53.594;9.938;2023-04-06T03:40:46;14.40;;;9.47;;
15451;SDS011;7827;53.594;9.938;2023-04-06T03:43:19;12.40;;;9.50;;
15451;SDS011;7827;53.594;9.938;2023-04-06T03:45:49;15.63;;;8.97;;
15451;SDS011;7827;53.594;9.938;2023-04-06T03:48:19;15.03;;;8.97;;
15451;SDS011;7827;53.594;9.938;2023-04-06T03:50:47;12.30;;;9.47;;
15451;SDS011;7827;53.594;9.938;2023-04-06T03:53:16;12.30;;;8.70;;
15451;SDS011;7827;53.594;9.938;2023-04-06T03:55:45;15.00;;;8.93;;
15451;SDS011;7827;53.594;9.938;2023-04-06T03:58:15;15.43;;;9.20;;
15451;SDS011;7827;53.594;9.938;2023-04-06T04:00:44;13.40;;;9.07;;
15451;SDS011;7827;53.594;9.938;2023-04-06T04:03:14;12.20;;;8.70;;
15451;SDS011;7827;53.594;9.938;2023-04-06T04:05:43;14.13;;;9.23;;
15451;SDS011;7827;53.594;9.938;2023-04-06T04:08:12;11.30;;;8.93;;
15451;SDS011;7827;53.594;9.938;2023-04-06T04:10:41;15.23;;;9.70;;
15451;SDS011;7827;53.594;9.938;2023-04-06T04:13:09;15.27;;;10.03;;
15451;SDS011;7827;53.594;9.938;2023-04-06T04:15:39;16.77;;;10.43;;
15451;SDS011;7827;53.594;9.938;2023-04-06T04:18:08;16.17;;;9.57;;
15451;SDS011;7827;53.594;9.938;2023-04-06T04:20:40;13.97;;;9.70;;
15451;SDS011;7827;53.594;9.938;2023-04-06T04:23:12;17.23;;;9.63;;
15451;SDS011;7827;53.594;9.938;2023-04-06T04:25:40;15.77;;;10.47;;
15451;SDS011;7827;53.594;9.938;2023-04-06T04:28:11;17.97;;;10.90;;
15451;SDS011;7827;53.594;9.938;2023-04-06T04:30:41;15.53;;;10.80;;
15451;SDS011;7827;53.594;9.938;2023-04-06T04:33:10;17.10;;;10.53;;
15451;SDS011;7827;53.594;9.938;2023-04-06T04:35:42;16.80;;;10.17;;
15451;SDS011;7827;53.594;9.938;2023-04-06T04:38:14;16.70;;;10.17;;
15451;SDS011;7827;53.594;9.938;2023-04-06T04:40:49;14.87;;;10.43;;
15451;SDS011;7827;53.594;9.938;2023-04-06T04:43:18;15.53;;;10.97;;
15451;SDS011;7827;53.594;9.938;2023-04-06T04:45:48;14.67;;;10.47;;
15451;SDS011;7827;53.594;9.938;2023-04-06T04:48:27;14.27;;;10.27;;
15451;SDS011;7827;53.594;9.938;2023-04-06T04:51:01;13.50;;;9.63;;
15451;SDS011;7827;53.594;9.938;2023-04-06T04:53:41;14.83;;;10.60;;
15451;SDS011;7827;53.594;9.938;2023-04-06T04:56:19;12.50;;;9.77;;
15451;SDS011;7827;53.594;9.938;2023-04-06T04:58:52;13.40;;;10.03;;
15451;SDS011;7827;53.594;9.938;2023-04-06T05:01:21;15.17;;;10.20;;
15451;SDS011;7827;53.594;9.938;2023-04-06T05:03:50;15.80;;;10.47;;
15451;SDS011;7827;53.594;9.938;2023-04-06T05:06:20;13.13;;;9.90;;
15451;SDS011;7827;53.594;9.938;2023-04-06T05:08:49;13.77;;;9.97;;
15451;SDS011;7827;53.594;9.938;2023-04-06T05:11:19;14.83;;;10.07;;
15451;SDS011;7827;53.594;9.938;2023-04-06T05:13:54;13.73;;;10.13;;
15451;SDS011;7827;53.594;9.938;2023-04-06T05:16:24;13.27;;;10.10;;
15451;SDS011;7827;53.594;9.938;2023-04-06T05:18:53;12.83;;;9.63;;
15451;SDS011;7827;53.594;9.938;2023-04-06T05:21:28;14.80;;;10.13;;
15451;SDS011;7827;53.594;9.938;2023-04-06T05:24:03;12.47;;;9.63;;
15451;SDS011;7827;53.594;9.938;2023-04-06T05:26:32;17.47;;;10.97;;
15451;SDS011;7827;53.594;9.938;2023-04-06T05:29:07;17.57;;;11.30;;
15451;SDS011;7827;53.594;9.938;2023-04-06T05:31:37;20.37;;;10.90;;
15451;SDS011;7827;53.594;9.938;2023-04-06T05:34:08;14.50;;;10.90;;
15451;SDS011;7827;53.594;9.938;2023-04-06T05:36:38;13.20;;;10.33;;
15451;SDS011;7827;53.594;9.938;2023-04-06T05:39:16;19.67;;;11.03;;
15451;SDS011;7827;53.594;9.938;2023-04-06T05:41:50;19.27;;;10.53;;
15451;SDS011;7827;53.594;9.938;2023-04-06T05:44:29;21.17;;;10.33;;
15451;SDS011;7827;53.594;9.938;2023-04-06T05:47:05;14.40;;;11.00;;
15451;SDS011;7827;53.594;9.938;2023-04-06T05:49:35;17.90;;;10.57;;
15451;SDS011;7827;53.594;9.938;2023-04-06T05:52:09;14.33;;;10.67;;
15451;SDS011;7827;53.594;9.938;2023-04-06T05:54:41;19.23;;;11.63;;
15451;SDS011;7827;53.594;9.938;2023-04-06T05:57:09;14.90;;;10.30;;
15451;SDS011;7827;53.594;9.938;2023-04-06T05:59:38;15.33;;;10.70;;
15451;SDS011;7827;53.594;9.938;2023-04-06T06:02:08;18.47;;;10.70;;
15451;SDS011;7827;53.594;9.938;2023-04-06T06:04:41;16.20;;;10.23;;
15451;SDS011;7827;53.594;9.938;2023-04-06T06:07:11;12.97;;;10.43;;
15451;SDS011;7827;53.594;9.938;2023-04-06T06:09:44;15.77;;;10.23;;
15451;SDS011;7827;53.594;9.938;2023-04-06T06:12:23;18.63;;;11.17;;
15451;SDS011;7827;53.594;9.938;2023-04-06T06:14:53;19.67;;;11.03;;
15451;SDS011;7827;53.594;9.938;2023-04-06T06:17:25;16.10;;;10.03;;
15451;SDS011;7827;53.594;9.938;2023-04-06T06:19:54;17.90;;;11.57;;
15451;SDS011;7827;53.594;9.938;2023-04-06T06:22:24;15.77;;;10.13;;
15451;SDS011;7827;53.594;9.938;2023-04-06T06:24:53;15.50;;;11.07;;
15451;SDS011;7827;53.594;9.938;2023-04-06T06:27:23;17.47;;;10.67;;
15451;SDS011;7827;53.594;9.938;2023-04-06T06:29:51;15.40;;;10.37;;
15451;SDS011;7827;53.594;9.938;2023-04-06T06:32:21;13.53;;;10.57;;
15451;SDS011;7827;53.594;9.938;2023-04-06T06:34:52;16.10;;;11.43;;
15451;SDS011;7827;53.594;9.938;2023-04-06T06:37:21;15.97;;;11.30;;
15451;SDS011;7827;53.594;9.938;2023-04-06T06:39:51;16.03;;;10.70;;
15451;SDS011;7827;53.594;9.938;2023-04-06T06:42:20;21.40;;;11.30;;
15451;SDS011;7827;53.594;9.938;2023-04-06T06:45:03;14.90;;;10.53;;
15451;SDS011;7827;53.594;9.938;2023-04-06T06:47:33;23.27;;;11.97;;
15451;SDS011;7827;53.594;9.938;2023-04-06T06:50:02;13.37;;;10.97;;
15451;SDS011;7827;53.594;9.938;2023-04-06T06:52:32;15.93;;;10.30;;
15451;SDS011;7827;53.594;9.938;2023-04-06T06:55:02;14.60;;;11.70;;
15451;SDS011;7827;53.594;9.938;2023-04-06T06:57:31;21.47;;;11.17;;
15451;SDS011;7827;53.594;9.938;2023-04-06T07:00:01;13.23;;;10.03;;
15451;SDS011;7827;53.594;9.938;2023-04-06T07:02:33;14.93;;;10.27;;
15451;SDS011;7827;53.594;9.938;2023-04-06T07:05:03;16.70;;;10.33;;
15451;SDS011;7827;53.594;9.938;2023-04-06T07:07:52;18.77;;;10.50;;
15451;SDS011;7827;53.594;9.938;2023-04-06T07:10:22;15.40;;;9.60;;
15451;SDS011;7827;53.594;9.938;2023-04-06T07:12:52;18.67;;;10.50;;
15451;SDS011;7827;53.594;9.938;2023-04-06T07:15:21;11.43;;;9.50;;
15451;SDS011;7827;53.594;9.938;2023-04-06T07:17:50;12.00;;;9.57;;
15451;SDS011;7827;53.594;9.938;2023-04-06T07:20:21;16.93;;;10.00;;
15451;SDS011;7827;53.594;9.938;2023-04-06T07:22:50;22.10;;;9.80;;
15451;SDS011;7827;53.594;9.938;2023-04-06T07:25:18;14.37;;;8.53;;
15451;SDS011;7827;53.594;9.938;2023-04-06T07:27:52;13.33;;;8.90;;
15451;SDS011;7827;53.594;9.938;2023-04-06T07:30:21;10.73;;;8.80;;
15451;SDS011;7827;53.594;9.938;2023-04-06T07:32:52;12.07;;;8.17;;
15451;SDS011;7827;53.594;9.938;2023-04-06T07:35:22;12.97;;;7.90;;
15451;SDS011;7827;53.594;9.938;2023-04-06T07:37:53;10.97;;;8.40;;
15451;SDS011;7827;53.594;9.938;2023-04-06T07:40:21;11.13;;;8.30;;
15451;SDS011;7827;53.594;9.938;2023-04-06T07:42:50;11.03;;;7.93;;
15451;SDS011;7827;53.594;9.938;2023-04-06T07:45:23;10.83;;;6.70;;
15451;SDS011;7827;53.594;9.938;2023-04-06T07:47:52;12.07;;;6.90;;
15451;SDS011;7827;53.594;9.938;2023-04-06T07:50:22;13.23;;;7.53;;
15451;SDS011;7827;53.594;9.938;2023-04-06T07:52:52;10.70;;;7.03;;
15451;SDS011;7827;53.594;9.938;2023-04-06T07:55:21;11.65;;;7.35;;
15451;SDS011;7827;53.594;9.938;2023-04-06T07:57:50;11.05;;;7.00;;
15451;SDS011;7827;53.594;9.938;2023-04-06T08:00:20;13.67;;;6.93;;
15451;SDS011;7827;53.594;9.938;2023-04-06T08:02:49;11.50;;;6.83;;
15451;SDS011;7827;53.594;9.938;2023-04-06T08:05:18;11.07;;;6.97;;
15451;SDS011;7827;53.594;9.938;2023-04-06T08:07:47;10.70;;;7.00;;
15451;SDS011;7827;53.594;9.938;2023-04-06T08:10:15;10.20;;;6.90;;
15451;SDS011;7827;53.594;9.938;2023-04-06T08:12:43;10.67;;;6.90;;
15451;SDS011;7827;53.594;9.938;2023-04-06T08:15:12;7.57;;;6.40;;
15451;SDS011;7827;53.594;9.938;2023-04-06T08:17:42;13.03;;;7.13;;
15451;SDS011;7827;53.594;9.938;2023-04-06T08:20:11;9.20;;;6.90;;
15451;SDS011;7827;53.594;9.938;2023-04-06T08:22:39;8.97;;;6.60;;
15451;SDS011;7827;53.594;9.938;2023-04-06T08:25:08;11.30;;;6.97;;
15451;SDS011;7827;53.594;9.938;2023-04-06T08:27:36;12.63;;;7.17;;
15451;SDS011;7827;53.594;9.938;2023-04-06T08:30:05;12.20;;;7.20;;
15451;SDS011;7827;53.594;9.938;2023-04-06T08:32:36;12.43;;;7.40;;
15451;SDS011;7827;53.594;9.938;2023-04-06T08:35:06;11.47;;;7.20;;
15451;SDS011;7827;53.594;9.938;2023-04-06T08:37:35;11.93;;;7.87;;
15451;SDS011;7827;53.594;9.938;2023-04-06T08:40:04;8.83;;;7.00;;
15451;SDS011;7827;53.594;9.938;2023-04-06T08:42:37;10.75;;;7.50;;
15451;SDS011;7827;53.594;9.938;2023-04-06T08:45:11;14.65;;;7.95;;
15451;SDS011;7827;53.594;9.938;2023-04-06T08:47:44;11.27;;;8.70;;
15451;SDS011;7827;53.594;9.938;2023-04-06T08:50:15;12.80;;;7.77;;
15451;SDS011;7827;53.594;9.938;2023-04-06T08:52:46;10.85;;;7.93;;
15451;SDS011;7827;53.594;9.938;2023-04-06T08:55:16;12.35;;;8.02;;
15451;SDS011;7827;53.594;9.938;2023-04-06T08:57:45;19.10;;;8.18;;
15451;SDS011;7827;53.594;9.938;2023-04-06T09:00:14;13.97;;;7.90;;
15451;SDS011;7827;53.594;9.938;2023-04-06T09:02:45;10.40;;;7.65;;
15451;SDS011;7827;53.594;9.938;2023-04-06T09:05:18;9.85;;;7.65;;
15451;SDS011;7827;53.594;9.938;2023-04-06T09:07:47;11.43;;;7.28;;
15451;SDS011;7827;53.594;9.938;2023-04-06T09:10:15;9.00;;;6.97;;
15451;SDS011;7827;53.594;9.938;2023-04-06T09:12:45;9.85;;;6.43;;
15451;SDS011;7827;53.594;9.938;2023-04-06T09:15:21;7.72;;;6.60;;
15451;SDS011;7827;53.594;9.938;2023-04-06T09:17:50;8.68;;;6.13;;
15451;SDS011;7827;53.594;9.938;2023-04-06T09:20:23;12.10;;;7.28;;
15451;SDS011;7827;53.594;9.938;2023-04-06T09:22:54;10.73;;;7.03;;
15451;SDS011;7827;53.594;9.938;2023-04-06T09:25:23;8.82;;;6.22;;
15451;SDS011;7827;53.594;9.938;2023-04-06T09:28:00;10.68;;;6.72;;
15451;SDS011;7827;53.594;9.938;2023-04-06T09:30:33;9.32;;;6.05;;
15451;SDS011;7827;53.594;9.938;2023-04-06T09:33:02;8.77;;;6.45;;
15451;SDS011;7827;53.594;9.938;2023-04-06T09:35:32;7.78;;;5.65;;
15451;SDS011;7827;53.594;9.938;2023-04-06T09:38:10;9.20;;;5.70;;
15451;SDS011;7827;53.594;9.938;2023-04-06T09:40:47;8.00;;;6.10;;
15451;SDS011;7827;53.594;9.938;2023-04-06T09:43:27;9.55;;;6.25;;
15451;SDS011;7827;53.594;9.938;2023-04-06T09:45:56;9.10;;;6.10;;
15451;SDS011;7827;53.594;9.938;2023-04-06T09:48:26;10.00;;;6.40;;
15451;SDS011;7827;53.594;9.938;2023-04-06T09:51:02;8.80;;;6.00;;
15451;SDS011;7827;53.594;9.938;2023-04-06T09:53:34;10.63;;;5.95;;
15451;SDS011;7827;53.594;9.938;2023-04-06T09:56:09;7.35;;;5.32;;
15451;SDS011;7827;53.594;9.938;2023-04-06T09:58:48;10.23;;;6.05;;
15451;SDS011;7827;53.594;9.938;2023-04-06T10:01:20;10.20;;;5.90;;
15451;SDS011;7827;53.594;9.938;2023-04-06T10:03:54;10.65;;;5.68;;
15451;SDS011;7827;53.594;9.938;2023-04-06T10:06:40;10.27;;;4.95;;
15451;SDS011;7827;53.594;9.938;2023-04-06T10:09:09;9.65;;;5.20;;
15451;SDS011;7827;53.594;9.938;2023-04-06T10:11:40;7.22;;;5.45;;
15451;SDS011;7827;53.594;9.938;2023-04-06T10:14:10;9.40;;;5.15;;
15451;SDS011;7827;53.594;9.938;2023-04-06T10:16:39;7.28;;;4.45;;
15451;SDS011;7827;53.594;9.938;2023-04-06T10:19:09;5.50;;;4.68;;
15451;SDS011;7827;53.594;9.938;2023-04-06T10:21:45;5.50;;;4.90;;
15451;SDS011;7827;53.594;9.938;2023-04-06T10:24:20;7.82;;;5.18;;
15451;SDS011;7827;53.594;9.938;2023-04-06T10:26:58;10.50;;;5.15;;
15451;SDS011;7827;53.594;9.938;2023-04-06T10:29:41;6.20;;;5.35;;
15451;SDS011;7827;53.594;9.938;2023-04-06T10:32:11;8.43;;;5.65;;
15451;SDS011;7827;53.594;9.938;2023-04-06T10:34:40;8.80;;;5.95;;
15451;SDS011;7827;53.594;9.938;2023-04-06T10:37:14;8.05;;;5.28;;
15451;SDS011;7827;53.594;9.938;2023-04-06T10:39:45;9.35;;;5.80;;
15451;SDS011;7827;53.594;9.938;2023-04-06T10:42:15;14.25;;;6.22;;
15451;SDS011;7827;53.594;9.938;2023-04-06T10:44:44;7.70;;;5.63;;
15451;SDS011;7827;53.594;9.938;2023-04-06T10:47:16;12.35;;;7.07;;
15451;SDS011;7827;53.594;9.938;2023-04-06T10:49:45;9.68;;;6.30;;
15451;SDS011;7827;53.594;9.938;2023-04-06T10:52:15;7.97;;;5.68;;
15451;SDS011;7827;53.594;9.938;2023-04-06T10:54:44;7.03;;;5.38;;
15451;SDS011;7827;53.594;9.938;2023-04-06T10:57:16;6.93;;;5.53;;
15451;SDS011;7827;53.594;9.938;2023-04-06T10:59:55;8.40;;;6.03;;
15451;SDS011;7827;53.594;9.938;2023-04-06T11:02:24;8.07;;;5.90;;
15451;SDS011;7827;53.594;9.938;2023-04-06T11:04:55;11.32;;;6.78;;
15451;SDS011;7827;53.594;9.938;2023-04-06T11:07:26;8.20;;;6.68;;
15451;SDS011;7827;53.594;9.938;2023-04-06T11:09:56;8.32;;;6.90;;
15451;SDS011;7827;53.594;9.938;2023-04-06T11:12:42;11.23;;;6.65;;
15451;SDS011;7827;53.594;9.938;2023-04-06T11:15:11;7.97;;;6.10;;
15451;SDS011;7827;53.594;9.938;2023-04-06T11:17:39;8.13;;;6.70;;
15451;SDS011;7827;53.594;9.938;2023-04-06T11:20:09;9.60;;;6.88;;
15451;SDS011;7827;53.594;9.938;2023-04-06T11:22:48;10.38;;;7.78;;
15451;SDS011;7827;53.594;9.938;2023-04-06T11:25:18;10.35;;;6.50;;
15451;SDS011;7827;53.594;9.938;2023-04-06T11:27:46;9.20;;;7.20;;
15451;SDS011;7827;53.594;9.938;2023-04-06T11:30:16;11.68;;;7.68;;
15451;SDS011;7827;53.594;9.938;2023-04-06T11:32:45;9.02;;;7.57;;
15451;SDS011;7827;53.594;9.938;2023-04-06T11:35:19;11.13;;;7.22;;
15451;SDS011;7827;53.594;9.938;2023-04-06T11:37:50;8.68;;;7.63;;
15451;SDS011;7827;53.594;9.938;2023-04-06T11:40:20;12.98;;;7.40;;
15451;SDS011;7827;53.594;9.938;2023-04-06T11:42:54;12.93;;;8.07;;
15451;SDS011;7827;53.594;9.938;2023-04-06T11:45:26;9.80;;;7.80;;
15451;SDS011;7827;53.594;9.938;2023-04-06T11:47:55;11.23;;;7.93;;
15451;SDS011;7827;53.594;9.938;2023-04-06T11:50:31;14.35;;;8.27;;
15451;SDS011;7827;53.594;9.938;2023-04-06T11:53:02;11.88;;;8.45;;
15451;SDS011;7827;53.594;9.938;2023-04-06T11:55:36;10.25;;;8.13;;
15451;SDS011;7827;53.594;9.938;2023-04-06T11:58:06;11.85;;;7.88;;
15451;SDS011;7827;53.594;9.938;2023-04-06T12:00:35;14.57;;;8.52;;
15451;SDS011;7827;53.594;9.938;2023-04-06T12:03:03;12.68;;;8.73;;
15451;SDS011;7827;53.594;9.938;2023-04-06T12:05:32;10.13;;;7.70;;
15451;SDS011;7827;53.594;9.938;2023-04-06T12:08:02;12.40;;;8.68;;
15451;SDS011;7827;53.594;9.938;2023-04-06T12:10:31;14.80;;;7.93;;
15451;SDS011;7827;53.594;9.938;2023-04-06T12:13:00;10.95;;;7.82;;
15451;SDS011;7827;53.594;9.938;2023-04-06T12:15:28;9.57;;;7.70;;
15451;SDS011;7827;53.594;9.938;2023-04-06T12:17:57;11.00;;;7.95;;
15451;SDS011;7827;53.594;9.938;2023-04-06T12:20:26;15.00;;;8.68;;
15451;SDS011;7827;53.594;9.938;2023-04-06T12:22:54;12.18;;;7.80;;
15451;SDS011;7827;53.594;9.938;2023-04-06T12:25:24;11.10;;;8.15;;
15451;SDS011;7827;53.594;9.938;2023-04-06T12:27:53;8.82;;;7.53;;
15451;SDS011;7827;53.594;9.938;2023-04-06T12:30:22;7.45;;;6.60;;
15451;SDS011;7827;53.594;9.938;2023-04-06T12:32:50;10.10;;;7.80;;
15451;SDS011;7827;53.594;9.938;2023-04-06T12:35:19;9.35;;;7.70;;
15451;SDS011;7827;53.594;9.938;2023-04-06T12:37:48;9.25;;;7.80;;
15451;SDS011;7827;53.594;9.938;2023-04-06T12:40:16;12.52;;;8.55;;
15451;SDS011;7827;53.594;9.938;2023-04-06T12:42:46;10.43;;;7.85;;
15451;SDS011;7827;53.594;9.938;2023-04-06T12:45:15;12.23;;;7.93;;
15451;SDS011;7827;53.594;9.938;2023-04-06T12:47:46;11.73;;;8.38;;
15451;SDS011;7827;53.594;9.938;2023-04-06T12:50:14;10.60;;;8.02;;
15451;SDS011;7827;53.594;9.938;2023-04-06T12:52:43;11.02;;;8.25;;
15451;SDS011;7827;53.594;9.938;2023-04-06T12:55:12;12.50;;;8.32;;
15451;SDS011;7827;53.594;9.938;2023-04-06T12:57:41;12.18;;;8.40;;
15451;SDS011;7827;53.594;9.938;2023-04-06T13:00:12;10.63;;;8.43;;
15451;SDS011;7827;53.594;9.938;2023-04-06T13:02:42;12.68;;;9.43;;
15451;SDS011;7827;53.594;9.938;2023-04-06T13:05:14;11.13;;;8.57;;
15451;SDS011;7827;53.594;9.938;2023-04-06T13:07:45;17.08;;;9.18;;
15451;SDS011;7827;53.594;9.938;2023-04-06T13:10:14;11.27;;;8.85;;
15451;SDS011;7827;53.594;9.938;2023-04-06T13:12:42;11.80;;;8.45;;
15451;SDS011;7827;53.594;9.938;2023-04-06T13:15:12;10.15;;;8.40;;
15451;SDS011;7827;53.594;9.938;2023-04-06T13:17:41;9.60;;;8.48;;
15451;SDS011;7827;53.594;9.938;2023-04-06T13:20:10;10.70;;;8.68;;
15451;SDS011;7827;53.594;9.938;2023-04-06T13:22:39;10.20;;;8.30;;
15451;SDS011;7827;53.594;9.938;2023-04-06T13:25:08;12.30;;;8.50;;
15451;SDS011;7827;53.594;9.938;2023-04-06T13:27:36;10.90;;;8.57;;
15451;SDS011;7827;53.594;9.938;2023-04-06T13:30:06;9.52;;;8.50;;
15451;SDS011;7827;53.594;9.938;2023-04-06T13:32:37;12.23;;;8.65;;
15451;SDS011;7827;53.594;9.938;2023-04-06T13:35:06;12.05;;;8.93;;
15451;SDS011;7827;53.594;9.938;2023-04-06T13:37:36;11.20;;;8.68;;
15451;SDS011;7827;53.594;9.938;2023-04-06T13:40:06;11.82;;;9.00;;
15451;SDS011;7827;53.594;9.938;2023-04-06T13:42:36;10.27;;;8.50;;
15451;SDS011;7827;53.594;9.938;2023-04-06T13:45:07;13.38;;;8.82;;
15451;SDS011;7827;53.594;9.938;2023-04-06T13:47:38;11.05;;;8.85;;
15451;SDS011;7827;53.594;9.938;2023-04-06T13:50:07;11.23;;;8.27;;
15451;SDS011;7827;53.594;9.938;2023-04-06T13:52:36;13.00;;;9.35;;
15451;SDS011;7827;53.594;9.938;2023-04-06T13:55:05;12.23;;;9.02;;
15451;SDS011;7827;53.594;9.938;2023-04-06T13:57:34;11.75;;;8.98;;
15451;SDS011;7827;53.594;9.938;2023-04-06T14:00:04;8.77;;;7.88;;
15451;SDS011;7827;53.594;9.938;2023-04-06T14:02:35;14.02;;;8.70;;
15451;SDS011;7827;53.594;9.938;2023-04-06T14:05:05;10.68;;;8.02;;
15451;SDS011;7827;53.594;9.938;2023-04-06T14:07:35;11.40;;;8.57;;
15451;SDS011;7827;53.594;9.938;2023-04-06T14:10:03;8.93;;;7.53;;
15451;SDS011;7827;53.594;9.938;2023-04-06T14:12:40;10.40;;;8.00;;
15451;SDS011;7827;53.594;9.938;2023-04-06T14:15:09;15.02;;;9.05;;
15451;SDS011;7827;53.594;9.938;2023-04-06T14:17:38;13.18;;;8.40;;
15451;SDS011;7827;53.594;9.938;2023-04-06T14:20:10;12.02;;;9.02;;
15451;SDS011;7827;53.594;9.938;2023-04-06T14:22:41;11.13;;;8.70;;
15451;SDS011;7827;53.594;9.938;2023-04-06T14:25:09;15.90;;;8.73;;
15451;SDS011;7827;53.594;9.938;2023-04-06T14:27:38;9.38;;;7.50;;
15451;SDS011;7827;53.594;9.938;2023-04-06T14:30:07;13.23;;;7.70;;
15451;SDS011;7827;53.594;9.938;2023-04-06T14:32:37;10.85;;;9.15;;
15451;SDS011;7827;53.594;9.938;2023-04-06T14:35:06;13.77;;;9.65;;
15451;SDS011;7827;53.594;9.938;2023-04-06T14:37:37;10.52;;;8.73;;
15451;SDS011;7827;53.594;9.938;2023-04-06T14:40:05;11.38;;;9.02;;
15451;SDS011;7827;53.594;9.938;2023-04-06T14:42:35;13.98;;;8.90;;
15451;SDS011;7827;53.594;9.938;2023-04-06T14:45:04;10.73;;;8.38;;
15451;SDS011;7827;53.594;9.938;2023-04-06T14:47:33;13.90;;;8.43;;
15451;SDS011;7827;53.594;9.938;2023-04-06T14:50:02;13.05;;;8.38;;
15451;SDS011;7827;53.594;9.938;2023-04-06T14:52:32;10.75;;;8.80;;
15451;SDS011;7827;53.594;9.938;2023-04-06T14:55:01;13.20;;;9.05;;
15451;SDS011;7827;53.594;9.938;2023-04-06T14:57:29;12.30;;;9.45;;
15451;SDS011;7827;53.594;9.938;2023-04-06T14:59:59;10.70;;;9.60;;
15451;SDS011;7827;53.594;9.938;2023-04-06T15:02:27;11.43;;;9.30;;
15451;SDS011;7827;53.594;9.938;2023-04-06T15:04:56;11.32;;;9.30;;
15451;SDS011;7827;53.594;9.938;2023-04-06T15:07:24;11.52;;;8.07;;
15451;SDS011;7827;53.594;9.938;2023-04-06T15:09:54;10.80;;;8.35;;